Terminal Aerodrome Forecast
Issued by NWS Burlington, VT

Home | Current Version | Previous Version | Text Only | Print | Product List | Glossary On
Versions: 1 2 3 4 5 6 7 8 9 10 11 12 13 14 15 16 17 18 19
878
FTUS41 KBTV 101937 AAA
TAFBTV
TAF AMD
KBTV 101937Z 1020/1118 31006KT 2SM -SN BR BKN025 OVC035
      TEMPO 1020/1022 1SM -SN BR OVC020
     FM110400 VRB04KT P6SM VCSH OVC025
     FM111200 32011KT P6SM VCSH OVC020=

USA.gov is the U.S. government's official web portal to all federal, state and local government web resources and services.